sensor_id;sensor_type;location;lat;lon;timestamp;pressure;altitude;pressure_sealevel;temperature;humidity
78685;BME280;68002;52.310;6.990;2023-02-19T15:06:04;101975.28;;;9.80;61.11
78685;BME280;68002;52.310;6.990;2023-02-19T15:08:34;101968.34;;;9.78;60.93
78685;BME280;68002;52.310;6.990;2023-02-19T15:11:02;101973.16;;;9.85;61.36
78685;BME280;68002;52.310;6.990;2023-02-19T15:13:31;101975.75;;;9.87;60.44
78685;BME280;68002;52.310;6.990;2023-02-19T15:15:57;101975.63;;;9.88;60.53
78685;BME280;68002;52.310;6.990;2023-02-19T15:18:24;101972.31;;;9.85;60.87
78685;BME280;68002;52.310;6.990;2023-02-19T15:20:57;101977.75;;;9.83;60.79
78685;BME280;68002;52.310;6.990;2023-02-19T15:23:24;101989.53;;;9.81;61.12
78685;BME280;68002;52.310;6.990;2023-02-19T15:25:50;101980.75;;;9.79;61.47
78685;BME280;68002;52.310;6.990;2023-02-19T15:31:14;101982.03;;;9.73;61.72
78685;BME280;68002;52.310;6.990;2023-02-19T15:33:48;101983.31;;;9.68;61.01
78685;BME280;68002;52.310;6.990;2023-02-19T15:36:16;102002.84;;;9.56;61.01
78685;BME280;68002;52.310;6.990;2023-02-19T15:38:51;102010.41;;;9.49;61.51
78685;BME280;68002;52.310;6.990;2023-02-19T15:41:20;102001.75;;;9.46;61.71
78685;BME280;68002;52.310;6.990;2023-02-19T15:46:31;102015.28;;;9.30;62.04
78685;BME280;68002;52.310;6.990;2023-02-19T15:49:02;102006.16;;;9.20;62.75
78685;BME280;68002;52.310;6.990;2023-02-19T15:51:38;102010.75;;;9.18;62.88
78685;BME280;68002;52.310;6.990;2023-02-19T15:54:23;102000.69;;;9.09;63.43
78685;BME280;68002;52.310;6.990;2023-02-19T15:56:51;102009.09;;;9.03;62.91
78685;BME280;68002;52.310;6.990;2023-02-19T15:59:23;102013.09;;;9.10;62.98
78685;BME280;68002;52.310;6.990;2023-02-19T16:01:52;102003.56;;;9.06;63.89
78685;BME280;68002;52.310;6.990;2023-02-19T16:04:18;102008.59;;;9.10;63.44
78685;BME280;68002;52.310;6.990;2023-02-19T16:06:51;102005.81;;;9.12;63.93
78685;BME280;68002;52.310;6.990;2023-02-19T16:09:23;102008.78;;;9.07;64.10
78685;BME280;68002;52.310;6.990;2023-02-19T16:11:53;102020.53;;;9.05;63.89
78685;BME280;68002;52.310;6.990;2023-02-19T16:19:55;102016.44;;;9.26;64.73
78685;BME280;68002;52.310;6.990;2023-02-19T16:22:24;102025.47;;;9.11;64.22
78685;BME280;68002;52.310;6.990;2023-02-19T16:27:03;102042.47;;;8.96;65.29
78685;BME280;68002;52.310;6.990;2023-02-19T16:29:30;102053.84;;;8.85;64.43
78685;BME280;68002;52.310;6.990;2023-02-19T16:32:02;102043.88;;;8.75;64.98
78685;BME280;68002;52.310;6.990;2023-02-19T16:34:44;102044.63;;;8.77;64.26
78685;BME280;68002;52.310;6.990;2023-02-19T16:40:36;102043.41;;;8.54;65.88
78685;BME280;68002;52.310;6.990;2023-02-19T16:45:28;102044.56;;;8.50;65.81
78685;BME280;68002;52.310;6.990;2023-02-19T16:47:54;102033.44;;;8.44;66.23
78685;BME280;68002;52.310;6.990;2023-02-19T16:50:24;102049.91;;;8.36;66.29
78685;BME280;68002;52.310;6.990;2023-02-19T16:52:55;102057.78;;;8.38;66.53
78685;BME280;68002;52.310;6.990;2023-02-19T16:55:22;102068.66;;;8.35;66.84
78685;BME280;68002;52.310;6.990;2023-02-19T16:57:47;102065.22;;;8.33;66.63
78685;BME280;68002;52.310;6.990;2023-02-19T17:00:21;102067.13;;;8.31;66.69
78685;BME280;68002;52.310;6.990;2023-02-19T17:02:49;102071.50;;;8.32;66.80
78685;BME280;68002;52.310;6.990;2023-02-19T17:05:17;102074.16;;;8.32;66.59
78685;BME280;68002;52.310;6.990;2023-02-19T17:07:42;102071.91;;;8.26;66.82
78685;BME280;68002;52.310;6.990;2023-02-19T17:10:12;102076.44;;;8.24;67.60
78685;BME280;68002;52.310;6.990;2023-02-19T17:12:37;102062.69;;;8.15;68.17
78685;BME280;68002;52.310;6.990;2023-02-19T17:15:02;102072.44;;;8.17;68.61
78685;BME280;68002;52.310;6.990;2023-02-19T17:17:28;102077.66;;;8.18;68.39
78685;BME280;68002;52.310;6.990;2023-02-19T17:19:53;102082.22;;;8.16;68.34
78685;BME280;68002;52.310;6.990;2023-02-19T17:22:18;102076.59;;;8.06;69.16
78685;BME280;68002;52.310;6.990;2023-02-19T17:24:43;102080.97;;;8.07;68.82
78685;BME280;68002;52.310;6.990;2023-02-19T17:27:10;102082.78;;;8.07;69.01
78685;BME280;68002;52.310;6.990;2023-02-19T17:29:35;102092.78;;;8.03;69.70
78685;BME280;68002;52.310;6.990;2023-02-19T17:32:00;102091.03;;;8.02;69.89
78685;BME280;68002;52.310;6.990;2023-02-19T17:34:26;102076.38;;;7.95;70.17
78685;BME280;68002;52.310;6.990;2023-02-19T17:36:51;102084.88;;;8.02;70.25
78685;BME280;68002;52.310;6.990;2023-02-19T17:39:16;102085.91;;;7.99;70.63
78685;BME280;68002;52.310;6.990;2023-02-19T17:41:41;102086.09;;;7.96;70.55
78685;BME280;68002;52.310;6.990;2023-02-19T17:44:07;102090.72;;;7.93;70.65
78685;BME280;68002;52.310;6.990;2023-02-19T17:46:32;102104.91;;;7.93;71.41
78685;BME280;68002;52.310;6.990;2023-02-19T17:48:57;102105.22;;;8.03;71.08
78685;BME280;68002;52.310;6.990;2023-02-19T17:51:22;102094.16;;;7.95;71.38
78685;BME280;68002;52.310;6.990;2023-02-19T17:53:48;102098.91;;;7.90;71.96
78685;BME280;68002;52.310;6.990;2023-02-19T17:56:18;102098.91;;;7.90;71.79
78685;BME280;68002;52.310;6.990;2023-02-19T17:58:44;102100.72;;;7.89;72.02
78685;BME280;68002;52.310;6.990;2023-02-19T18:01:09;102097.78;;;7.94;71.99
78685;BME280;68002;52.310;6.990;2023-02-19T18:03:34;102108.78;;;7.88;72.09
78685;BME280;68002;52.310;6.990;2023-02-19T18:06:00;102112.44;;;7.87;72.30
78685;BME280;68002;52.310;6.990;2023-02-19T18:08:25;102104.34;;;7.88;73.00
78685;BME280;68002;52.310;6.990;2023-02-19T18:10:50;102106.44;;;7.83;73.18
78685;BME280;68002;52.310;6.990;2023-02-19T18:13:15;102104.13;;;7.77;73.20
78685;BME280;68002;52.310;6.990;2023-02-19T18:15:40;102112.59;;;7.84;72.96
78685;BME280;68002;52.310;6.990;2023-02-19T18:18:05;102102.31;;;7.78;72.98
78685;BME280;68002;52.310;6.990;2023-02-19T18:20:31;102110.31;;;7.78;74.03
78685;BME280;68002;52.310;6.990;2023-02-19T18:22:56;102112.34;;;7.88;73.28
78685;BME280;68002;52.310;6.990;2023-02-19T18:25:22;102113.53;;;7.83;73.69
78685;BME280;68002;52.310;6.990;2023-02-19T18:27:48;102114.50;;;7.82;73.82
78685;BME280;68002;52.310;6.990;2023-02-19T18:30:15;102110.41;;;7.76;73.75
78685;BME280;68002;52.310;6.990;2023-02-19T18:32:40;102111.63;;;7.71;74.25
78685;BME280;68002;52.310;6.990;2023-02-19T18:35:06;102115.78;;;7.75;74.26
78685;BME280;68002;52.310;6.990;2023-02-19T18:37:31;102124.84;;;7.72;74.64
78685;BME280;68002;52.310;6.990;2023-02-19T18:40:01;102129.50;;;7.69;74.13
78685;BME280;68002;52.310;6.990;2023-02-19T18:42:26;102138.31;;;7.69;74.46
78685;BME280;68002;52.310;6.990;2023-02-19T18:44:52;102137.53;;;7.67;74.44
78685;BME280;68002;52.310;6.990;2023-02-19T18:47:18;102117.19;;;7.66;73.93
78685;BME280;68002;52.310;6.990;2023-02-19T18:49:46;102121.56;;;7.67;74.36
78685;BME280;68002;52.310;6.990;2023-02-19T18:52:11;102119.19;;;7.63;74.37
78685;BME280;68002;52.310;6.990;2023-02-19T18:54:36;102135.50;;;7.57;74.17
78685;BME280;68002;52.310;6.990;2023-02-19T18:57:01;102139.13;;;7.56;74.16
78685;BME280;68002;52.310;6.990;2023-02-19T18:59:26;102139.22;;;7.54;73.64
78685;BME280;68002;52.310;6.990;2023-02-19T19:01:52;102131.38;;;7.51;73.53
78685;BME280;68002;52.310;6.990;2023-02-19T19:04:17;102140.25;;;7.52;73.41
78685;BME280;68002;52.310;6.990;2023-02-19T19:06:42;102127.59;;;7.55;72.92
78685;BME280;68002;52.310;6.990;2023-02-19T19:09:08;102135.78;;;7.52;73.42
78685;BME280;68002;52.310;6.990;2023-02-19T19:11:33;102125.38;;;7.48;73.50
78685;BME280;68002;52.310;6.990;2023-02-19T19:13:58;102114.75;;;7.48;73.16
78685;BME280;68002;52.310;6.990;2023-02-19T19:16:26;102126.25;;;7.48;73.51
78685;BME280;68002;52.310;6.990;2023-02-19T19:18:51;102109.69;;;7.43;73.08
78685;BME280;68002;52.310;6.990;2023-02-19T19:21:17;102108.72;;;7.44;72.73
78685;BME280;68002;52.310;6.990;2023-02-19T19:23:42;102112.16;;;7.46;71.89
78685;BME280;68002;52.310;6.990;2023-02-19T19:26:08;102109.59;;;7.45;72.16
78685;BME280;68002;52.310;6.990;2023-02-19T19:28:33;102105.59;;;7.38;72.71
78685;BME280;68002;52.310;6.990;2023-02-19T19:30:58;102115.44;;;7.36;72.88
78685;BME280;68002;52.310;6.990;2023-02-19T19:33:24;102111.06;;;7.35;72.04
78685;BME280;68002;52.310;6.990;2023-02-19T19:35:49;102118.94;;;7.36;72.10
78685;BME280;68002;52.310;6.990;2023-02-19T19:38:14;102125.91;;;7.39;72.01
78685;BME280;68002;52.310;6.990;2023-02-19T19:40:39;102127.13;;;7.33;72.55
78685;BME280;68002;52.310;6.990;2023-02-19T19:43:04;102135.44;;;7.27;71.52
78685;BME280;68002;52.310;6.990;2023-02-19T19:45:30;102135.00;;;7.35;70.83
78685;BME280;68002;52.310;6.990;2023-02-19T19:47:55;102135.44;;;7.27;71.39
78685;BME280;68002;52.310;6.990;2023-02-19T19:50:20;102145.06;;;7.30;71.40
78685;BME280;68002;52.310;6.990;2023-02-19T19:52:45;102152.28;;;7.28;71.58
78685;BME280;68002;52.310;6.990;2023-02-19T19:55:10;102145.84;;;7.32;71.27
78685;BME280;68002;52.310;6.990;2023-02-19T19:57:36;102146.84;;;7.29;70.99
78685;BME280;68002;52.310;6.990;2023-02-19T20:00:02;102144.38;;;7.26;71.66
78685;BME280;68002;52.310;6.990;2023-02-19T20:02:27;102147.03;;;7.26;71.15
78685;BME280;68002;52.310;6.990;2023-02-19T20:04:53;102132.19;;;7.22;71.37
78685;BME280;68002;52.310;6.990;2023-02-19T20:07:18;102140.50;;;7.16;71.30
78685;BME280;68002;52.310;6.990;2023-02-19T20:09:47;102143.59;;;7.24;71.57
78685;BME280;68002;52.310;6.990;2023-02-19T20:12:12;102148.25;;;7.21;71.93
78685;BME280;68002;52.310;6.990;2023-02-19T20:14:38;102145.00;;;7.16;72.53
78685;BME280;68002;52.310;6.990;2023-02-19T20:17:03;102146.28;;;7.24;71.92
78685;BME280;68002;52.310;6.990;2023-02-19T20:19:28;102151.09;;;7.18;72.87
78685;BME280;68002;52.310;6.990;2023-02-19T20:21:53;102149.13;;;7.21;72.39
78685;BME280;68002;52.310;6.990;2023-02-19T20:24:21;102146.53;;;7.20;72.24
78685;BME280;68002;52.310;6.990;2023-02-19T20:26:47;102140.50;;;7.16;72.40
78685;BME280;68002;52.310;6.990;2023-02-19T20:29:12;102132.63;;;7.14;72.95
78685;BME280;68002;52.310;6.990;2023-02-19T20:31:37;102123.03;;;7.12;72.58
78685;BME280;68002;52.310;6.990;2023-02-19T20:34:04;102124.72;;;7.13;72.83
78685;BME280;68002;52.310;6.990;2023-02-19T20:36:29;102124.13;;;7.08;72.80
78685;BME280;68002;52.310;6.990;2023-02-19T20:38:54;102126.78;;;7.08;72.95
78685;BME280;68002;52.310;6.990;2023-02-19T20:41:20;102139.91;;;7.11;72.69
78685;BME280;68002;52.310;6.990;2023-02-19T20:43:45;102142.75;;;7.08;73.29
78685;BME280;68002;52.310;6.990;2023-02-19T20:46:10;102133.81;;;7.09;72.58
78685;BME280;68002;52.310;6.990;2023-02-19T20:48:36;102137.56;;;7.05;72.97
78685;BME280;68002;52.310;6.990;2023-02-19T20:51:01;102150.88;;;7.05;73.25
78685;BME280;68002;52.310;6.990;2023-02-19T20:53:28;102150.47;;;6.97;73.50
78685;BME280;68002;52.310;6.990;2023-02-19T20:55:54;102148.91;;;6.93;73.98
78685;BME280;68002;52.310;6.990;2023-02-19T20:58:19;102135.63;;;6.93;74.04
78685;BME280;68002;52.310;6.990;2023-02-19T21:00:44;102130.63;;;6.87;73.98
78685;BME280;68002;52.310;6.990;2023-02-19T21:03:09;102134.84;;;6.91;73.64
78685;BME280;68002;52.310;6.990;2023-02-19T21:05:35;102131.56;;;6.86;74.05
78685;BME280;68002;52.310;6.990;2023-02-19T21:08:00;102117.41;;;6.85;74.46
78685;BME280;68002;52.310;6.990;2023-02-19T21:10:25;102121.19;;;6.81;74.89
78685;BME280;68002;52.310;6.990;2023-02-19T21:12:50;102108.91;;;6.79;74.83
78685;BME280;68002;52.310;6.990;2023-02-19T21:15:15;102122.44;;;6.74;74.87
78685;BME280;68002;52.310;6.990;2023-02-19T21:17:43;102127.78;;;6.74;75.55
78685;BME280;68002;52.310;6.990;2023-02-19T21:20:09;102109.56;;;6.67;76.12
78685;BME280;68002;52.310;6.990;2023-02-19T21:22:34;102108.75;;;6.66;75.99
78685;BME280;68002;52.310;6.990;2023-02-19T21:24:59;102113.38;;;6.63;77.17
78685;BME280;68002;52.310;6.990;2023-02-19T21:27:24;102110.72;;;6.63;77.42
78685;BME280;68002;52.310;6.990;2023-02-19T21:29:50;102129.31;;;6.63;77.74
78685;BME280;68002;52.310;6.990;2023-02-19T21:32:15;102119.59;;;6.62;78.43
78685;BME280;68002;52.310;6.990;2023-02-19T21:34:41;102116.16;;;6.60;79.39
78685;BME280;68002;52.310;6.990;2023-02-19T21:37:06;102118.81;;;6.60;79.27
78685;BME280;68002;52.310;6.990;2023-02-19T21:39:31;102131.19;;;6.61;79.18
78685;BME280;68002;52.310;6.990;2023-02-19T21:41:56;102123.28;;;6.59;79.30
78685;BME280;68002;52.310;6.990;2023-02-19T21:44:21;102109.06;;;6.60;79.24
78685;BME280;68002;52.310;6.990;2023-02-19T21:46:47;102118.75;;;6.61;79.21
78685;BME280;68002;52.310;6.990;2023-02-19T21:49:12;102117.22;;;6.57;79.16
78685;BME280;68002;52.310;6.990;2023-02-19T21:51:39;102120.88;;;6.55;79.34
78685;BME280;68002;52.310;6.990;2023-02-19T21:54:06;102112.22;;;6.51;79.26
78685;BME280;68002;52.310;6.990;2023-02-19T21:56:33;102119.31;;;6.51;79.73
78685;BME280;68002;52.310;6.990;2023-02-19T21:58:58;102120.19;;;6.51;78.74
78685;BME280;68002;52.310;6.990;2023-02-19T22:01:25;102114.31;;;6.45;79.90
78685;BME280;68002;52.310;6.990;2023-02-19T22:03:50;102113.63;;;6.41;79.13
78685;BME280;68002;52.310;6.990;2023-02-19T22:06:16;102121.69;;;6.40;79.10
78685;BME280;68002;52.310;6.990;2023-02-19T22:08:42;102122.88;;;6.34;79.71
78685;BME280;68002;52.310;6.990;2023-02-19T22:11:08;102142.34;;;6.35;79.83
78685;BME280;68002;52.310;6.990;2023-02-19T22:13:33;102143.69;;;6.26;79.31
78685;BME280;68002;52.310;6.990;2023-02-19T22:15:58;102147.53;;;6.21;79.67
78685;BME280;68002;52.310;6.990;2023-02-19T22:18:23;102154.22;;;6.28;79.81
78685;BME280;68002;52.310;6.990;2023-02-19T22:20:49;102155.81;;;6.15;80.27
78685;BME280;68002;52.310;6.990;2023-02-19T22:23:14;102140.25;;;6.07;80.43
78685;BME280;68002;52.310;6.990;2023-02-19T22:25:39;102146.81;;;6.00;80.38
78685;BME280;68002;52.310;6.990;2023-02-19T22:28:04;102160.09;;;6.00;81.14
78685;BME280;68002;52.310;6.990;2023-02-19T22:30:30;102141.59;;;5.98;80.79
78685;BME280;68002;52.310;6.990;2023-02-19T22:32:55;102144.16;;;6.00;80.90
78685;BME280;68002;52.310;6.990;2023-02-19T22:35:20;102147.81;;;5.97;80.64
78685;BME280;68002;52.310;6.990;2023-02-19T22:37:46;102130.97;;;5.98;80.79
78685;BME280;68002;52.310;6.990;2023-02-19T22:40:11;102140.31;;;5.88;80.80
78685;BME280;68002;52.310;6.990;2023-02-19T22:42:36;102139.25;;;5.92;81.02
78685;BME280;68002;52.310;6.990;2023-02-19T22:45:02;102135.81;;;5.90;81.29
78685;BME280;68002;52.310;6.990;2023-02-19T22:47:27;102129.78;;;5.87;81.23
78685;BME280;68002;52.310;6.990;2023-02-19T22:49:52;102137.53;;;5.91;81.75
78685;BME280;68002;52.310;6.990;2023-02-19T22:52:18;102132.63;;;5.82;81.22
78685;BME280;68002;52.310;6.990;2023-02-19T22:54:43;102135.53;;;5.78;82.01
78685;BME280;68002;52.310;6.990;2023-02-19T22:57:08;102120.38;;;5.80;82.20
78685;BME280;68002;52.310;6.990;2023-02-19T22:59:33;102129.22;;;5.80;81.75
78685;BME280;68002;52.310;6.990;2023-02-19T23:01:58;102132.00;;;5.77;81.88
78685;BME280;68002;52.310;6.990;2023-02-19T23:04:24;102122.34;;;5.76;81.56
78685;BME280;68002;52.310;6.990;2023-02-19T23:06:49;102108.41;;;5.71;82.13
78685;BME280;68002;52.310;6.990;2023-02-19T23:09:18;102111.94;;;5.72;81.38
78685;BME280;68002;52.310;6.990;2023-02-19T23:11:44;102107.25;;;5.77;81.48
78685;BME280;68002;52.310;6.990;2023-02-19T23:14:09;102100.00;;;5.80;81.00
78685;BME280;68002;52.310;6.990;2023-02-19T23:16:34;102117.38;;;5.87;81.55
78685;BME280;68002;52.310;6.990;2023-02-19T23:19:01;102103.41;;;5.84;81.24
78685;BME280;68002;52.310;6.990;2023-02-19T23:21:26;102097.28;;;5.82;80.99
78685;BME280;68002;52.310;6.990;2023-02-19T23:23:52;102098.88;;;5.86;81.03
78685;BME280;68002;52.310;6.990;2023-02-19T23:26:17;102096.22;;;5.86;81.28
78685;BME280;68002;52.310;6.990;2023-02-19T23:28:43;102087.22;;;5.88;81.04
78685;BME280;68002;52.310;6.990;2023-02-19T23:31:09;102084.47;;;5.90;80.91
78685;BME280;68002;52.310;6.990;2023-02-19T23:33:34;102079.34;;;5.87;80.93
78685;BME280;68002;52.310;6.990;2023-02-19T23:35:59;102078.25;;;5.91;80.99
78685;BME280;68002;52.310;6.990;2023-02-19T23:38:25;102062.53;;;5.86;81.32
78685;BME280;68002;52.310;6.990;2023-02-19T23:40:50;102070.38;;;5.89;81.46
78685;BME280;68002;52.310;6.990;2023-02-19T23:43:15;102056.06;;;5.92;81.78
78685;BME280;68002;52.310;6.990;2023-02-19T23:45:40;102063.25;;;5.90;81.75
78685;BME280;68002;52.310;6.990;2023-02-19T23:48:06;102046.31;;;5.92;81.53
78685;BME280;68002;52.310;6.990;2023-02-19T23:50:31;102050.75;;;5.92;81.94
78685;BME280;68002;52.310;6.990;2023-02-19T23:52:56;102039.50;;;5.87;82.10
78685;BME280;68002;52.310;6.990;2023-02-19T23:55:22;102042.34;;;5.84;82.47
78685;BME280;68002;52.310;6.990;2023-02-19T23:57:47;102054.50;;;5.88;82.46
